createdAt,value
2024-05-09T00:00:29.762Z,52.84
2024-05-09T00:03:43.805Z,53.51
2024-05-09T00:06:33.307Z,53.87
2024-05-09T00:09:22.782Z,53.78
2024-05-09T00:12:12.226Z,53.72
2024-05-09T00:15:02.033Z,53.74
2024-05-09T00:17:51.851Z,53.89
2024-05-09T00:20:41.925Z,54.12
2024-05-09T00:23:31.821Z,54.23
2024-05-09T00:26:21.423Z,54.40
2024-05-09T00:29:10.677Z,54.51
2024-05-09T00:32:00.669Z,54.47
2024-05-09T00:34:49.913Z,54.97
2024-05-09T00:37:39.759Z,55.35
2024-05-09T00:40:38.752Z,55.37
2024-05-09T00:43:32.776Z,55.44
2024-05-09T00:46:22.215Z,54.40
2024-05-09T00:49:12.197Z,54.57
2024-05-09T00:52:01.668Z,55.14
2024-05-09T00:54:50.872Z,55.69
2024-05-09T00:57:40.815Z,56.06
2024-05-09T01:00:37.803Z,56.18
2024-05-09T01:03:30.191Z,56.41
2024-05-09T01:06:20.455Z,57.09
2024-05-09T01:09:09.870Z,57.77
2024-05-09T01:11:59.379Z,57.76
2024-05-09T01:14:49.017Z,57.52
2024-05-09T01:17:38.948Z,57.74
2024-05-09T01:20:39.172Z,57.55
2024-05-09T01:23:31.952Z,56.56
2024-05-09T01:26:21.780Z,56.64
2024-05-09T01:29:11.228Z,57.21
2024-05-09T01:32:00.800Z,58.66
2024-05-09T01:34:50.628Z,58.67
2024-05-09T01:37:40.458Z,58.72
2024-05-09T01:40:37.165Z,59.06
2024-05-09T01:43:29.415Z,59.05
2024-05-09T01:46:19.634Z,58.43
2024-05-09T01:49:09.352Z,58.39
2024-05-09T01:51:59.009Z,58.49
2024-05-09T01:54:48.675Z,58.68
2024-05-09T01:57:38.342Z,58.84
2024-05-09T02:00:37.942Z,58.93
2024-05-09T02:03:31.882Z,59.34
2024-05-09T02:06:21.405Z,60.07
2024-05-09T02:09:10.992Z,60.23
2024-05-09T02:12:01.471Z,60.63
2024-05-09T02:14:51.773Z,60.61
2024-05-09T02:17:41.438Z,60.98
2024-05-09T02:20:36.156Z,61.24
2024-05-09T02:23:26.469Z,61.61
2024-05-09T02:26:15.671Z,61.64
2024-05-09T02:29:05.199Z,61.85
2024-05-09T02:31:54.714Z,61.89
2024-05-09T02:34:44.277Z,61.93
2024-05-09T02:37:33.804Z,61.65
2024-05-09T02:40:33.011Z,61.46
2024-05-09T02:43:27.088Z,61.54
2024-05-09T02:46:16.243Z,61.27
2024-05-09T02:49:06.175Z,61.33
2024-05-09T02:51:55.504Z,61.48
2024-05-09T02:54:45.073Z,61.57
2024-05-09T02:57:34.344Z,61.79
2024-05-09T03:00:29.918Z,61.83
2024-05-09T03:03:27.774Z,61.77
2024-05-09T03:06:17.612Z,61.75
2024-05-09T03:09:09.695Z,61.68
2024-05-09T03:11:59.625Z,61.74
2024-05-09T03:14:50.308Z,61.78
2024-05-09T03:17:40.559Z,61.24
2024-05-09T03:20:34.244Z,60.85
2024-05-09T03:23:25.364Z,60.55
2024-05-09T03:26:16.588Z,60.38
2024-05-09T03:29:06.243Z,60.27
2024-05-09T03:31:56.188Z,59.78
2024-05-09T03:34:45.908Z,58.53
2024-05-09T03:37:35.326Z,57.64
2024-05-09T03:40:28.953Z,56.69
2024-05-09T03:43:20.181Z,55.18
2024-05-09T03:46:10.807Z,53.65
2024-05-09T03:49:00.329Z,52.21
2024-05-09T03:51:50.278Z,50.57
2024-05-09T03:54:44.655Z,49.19
2024-05-09T03:57:34.127Z,47.69
2024-05-09T04:00:31.341Z,46.09
2024-05-09T04:03:27.512Z,44.49
2024-05-09T04:06:23.369Z,42.87
2024-05-09T04:09:12.501Z,41.28
2024-05-09T04:12:02.056Z,40.04
2024-05-09T04:14:51.551Z,38.68
2024-05-09T04:17:40.965Z,37.16
2024-05-09T04:20:38.211Z,35.85
2024-05-09T04:23:30.040Z,34.80
2024-05-09T04:26:19.807Z,33.60
2024-05-09T04:29:09.387Z,32.63
2024-05-09T04:31:59.192Z,31.37
2024-05-09T04:34:48.751Z,30.18
2024-05-09T04:37:38.081Z,29.17
2024-05-09T04:40:33.503Z,28.07
2024-05-09T04:43:25.327Z,27.02
2024-05-09T04:46:14.895Z,26.17
2024-05-09T04:49:04.478Z,25.10
2024-05-09T04:51:54.366Z,24.08
2024-05-09T04:54:43.822Z,23.39
2024-05-09T04:57:34.030Z,22.38
2024-05-09T05:00:32.388Z,21.77
2024-05-09T05:03:28.967Z,20.72
2024-05-09T05:06:18.925Z,20.24
2024-05-09T05:09:08.499Z,19.60
2024-05-09T05:11:59.753Z,19.20
2024-05-09T05:14:49.187Z,18.65
2024-05-09T05:17:38.945Z,18.25
2024-05-09T05:20:33.474Z,17.74
2024-05-09T05:23:24.614Z,17.15
2024-05-09T05:26:20.497Z,16.74
2024-05-09T05:29:10.419Z,16.21
2024-05-09T05:31:59.650Z,15.71
2024-05-09T05:34:49.050Z,15.27
2024-05-09T05:37:38.790Z,14.90
2024-05-09T05:40:35.767Z,14.45
2024-05-09T05:43:27.367Z,13.91
2024-05-09T05:46:16.935Z,14.05
2024-05-09T05:49:06.772Z,13.91
2024-05-09T05:51:55.783Z,13.54
2024-05-09T05:54:48.638Z,13.56
2024-05-09T05:57:38.418Z,13.52
2024-05-09T06:00:34.736Z,13.30
2024-05-09T06:03:29.557Z,12.86
2024-05-09T06:06:19.737Z,12.68
2024-05-09T06:09:08.998Z,12.14
2024-05-09T06:11:58.842Z,12.11
2024-05-09T06:14:49.273Z,12.19
2024-05-09T06:17:39.263Z,12.19
2024-05-09T06:20:35.722Z,12.00
2024-05-09T06:23:27.411Z,11.78
2024-05-09T06:26:17.336Z,11.89
2024-05-09T06:29:06.611Z,11.67
2024-05-09T06:31:59.520Z,11.68
2024-05-09T06:34:49.762Z,11.63
2024-05-09T06:37:39.502Z,11.57
2024-05-09T06:40:37.110Z,11.74
2024-05-09T06:43:29.408Z,11.82
2024-05-09T06:46:19.281Z,11.76
2024-05-09T06:49:09.636Z,11.67
2024-05-09T06:51:59.360Z,11.61
2024-05-09T06:54:49.137Z,12.04
2024-05-09T06:57:40.562Z,12.12
2024-05-09T07:00:38.579Z,12.28
2024-05-09T07:03:31.918Z,13.00
2024-05-09T07:06:22.504Z,13.92
2024-05-09T07:09:11.982Z,14.82
2024-05-09T07:12:01.890Z,15.76
2024-05-09T07:14:51.451Z,16.65
2024-05-09T07:17:41.135Z,17.42
2024-05-09T07:20:34.620Z,18.20
2024-05-09T07:23:24.168Z,19.14
2024-05-09T07:26:13.944Z,20.04
2024-05-09T07:29:03.541Z,20.83
2024-05-09T07:31:53.106Z,21.16
2024-05-09T07:34:42.794Z,21.22
2024-05-09T07:37:32.834Z,21.82
2024-05-09T07:40:31.878Z,22.36
2024-05-09T07:43:28.071Z,22.74
2024-05-09T07:47:14.307Z,22.74
2024-05-09T07:55:11.477Z,22.93
2024-05-09T07:58:01.211Z,22.98
2024-05-09T08:00:51.388Z,22.45
2024-05-09T08:03:40.962Z,22.66
2024-05-09T08:06:30.735Z,22.79
2024-05-09T08:09:21.421Z,23.01
2024-05-09T08:12:12.830Z,23.16
2024-05-09T08:15:03.123Z,23.07
2024-05-09T08:17:52.985Z,22.64
2024-05-09T08:20:42.687Z,23.33
2024-05-09T08:23:31.814Z,22.85
2024-05-09T08:26:22.207Z,22.83
2024-05-09T08:29:12.298Z,22.87
2024-05-09T08:32:02.145Z,22.90
2024-05-09T08:34:51.608Z,22.52
2024-05-09T08:37:43.680Z,22.85
2024-05-09T08:40:36.104Z,22.97
2024-05-09T08:43:26.999Z,22.83
2024-05-09T08:46:19.190Z,22.64
2024-05-09T08:49:09.185Z,23.08
2024-05-09T08:51:59.100Z,23.00
2024-05-09T08:54:48.510Z,22.75
2024-05-09T08:57:37.537Z,22.79
2024-05-09T09:00:35.580Z,22.83
2024-05-09T09:03:27.406Z,22.61
2024-05-09T09:06:18.364Z,21.56
2024-05-09T09:09:07.556Z,21.56
2024-05-09T09:11:57.949Z,22.99
2024-05-09T09:14:48.338Z,23.02
2024-05-09T09:17:38.056Z,23.20
2024-05-09T09:20:35.327Z,23.14
2024-05-09T09:23:29.825Z,23.59
2024-05-09T09:26:19.747Z,24.31
2024-05-09T09:29:09.026Z,23.93
2024-05-09T09:32:03.706Z,23.75
2024-05-09T09:34:53.018Z,23.08
2024-05-09T09:37:42.657Z,22.49
2024-05-09T09:40:39.074Z,22.36
2024-05-09T09:43:32.451Z,21.79
2024-05-09T09:46:22.065Z,22.49
2024-05-09T09:49:11.779Z,23.06
2024-05-09T09:52:02.391Z,23.31
2024-05-09T09:54:51.706Z,23.31
2024-05-09T09:57:42.620Z,22.69
2024-05-09T10:00:33.604Z,22.69
2024-05-09T10:03:23.698Z,22.56
2024-05-09T10:06:13.782Z,21.88
2024-05-09T10:09:04.158Z,21.91
2024-05-09T10:11:59.714Z,21.76
2024-05-09T10:14:50.886Z,21.80
2024-05-09T10:17:49.323Z,20.98
2024-05-09T10:20:42.949Z,20.65
2024-05-09T10:23:33.746Z,20.02
2024-05-09T10:26:44.319Z,20.72
2024-05-09T10:29:34.091Z,21.65
2024-05-09T10:32:24.630Z,22.48
2024-05-09T10:35:19.498Z,22.13
2024-05-09T10:38:08.956Z,21.63
2024-05-09T10:40:58.844Z,21.14
2024-05-09T10:43:48.413Z,20.52
2024-05-09T10:46:38.204Z,20.38
2024-05-09T10:49:28.050Z,19.69
2024-05-09T10:52:24.553Z,19.23
2024-05-09T10:55:14.419Z,19.72
2024-05-09T10:58:03.942Z,19.75
2024-05-09T11:00:57.792Z,19.91
2024-05-09T11:03:48.191Z,19.82
2024-05-09T11:06:38.436Z,19.96
2024-05-09T11:09:27.717Z,20.40
2024-05-09T11:12:17.186Z,20.03
2024-05-09T11:15:06.547Z,19.59
2024-05-09T11:17:56.044Z,19.87
2024-05-09T11:20:45.868Z,19.70
2024-05-09T11:23:35.480Z,19.28
2024-05-09T11:26:28.132Z,18.70
2024-05-09T11:29:19.438Z,18.84
2024-05-09T11:32:11.672Z,19.40
2024-05-09T11:35:01.058Z,20.62
2024-05-09T11:37:50.212Z,20.13
2024-05-09T11:40:40.003Z,19.79
2024-05-09T11:43:29.958Z,20.18
2024-05-09T11:46:19.277Z,19.44
2024-05-09T11:49:09.514Z,18.86
2024-05-09T11:51:59.080Z,18.27
2024-05-09T11:54:49.574Z,18.08
2024-05-09T11:57:39.281Z,17.72
2024-05-09T12:00:34.352Z,18.28
2024-05-09T12:03:27.061Z,19.05
2024-05-09T12:06:17.274Z,18.85
2024-05-09T12:09:06.909Z,19.40
2024-05-09T12:11:56.391Z,19.25
2024-05-09T12:14:46.061Z,18.40
2024-05-09T12:17:35.727Z,17.92
2024-05-09T12:20:32.433Z,17.81
2024-05-09T12:23:25.736Z,19.04
2024-05-09T12:26:15.977Z,19.04
2024-05-09T12:29:05.707Z,18.04
2024-05-09T12:31:55.111Z,18.61
2024-05-09T12:34:44.734Z,18.38
2024-05-09T12:37:34.336Z,18.23
2024-05-09T12:40:34.020Z,18.45
2024-05-09T12:43:28.033Z,18.59
2024-05-09T12:46:20.574Z,18.85
2024-05-09T12:49:10.530Z,18.99
2024-05-09T12:52:00.089Z,19.37
2024-05-09T12:54:49.857Z,19.74
2024-05-09T12:57:39.506Z,20.06
2024-05-09T13:00:33.710Z,20.12
2024-05-09T13:03:24.320Z,19.46
2024-05-09T13:06:14.055Z,19.17
2024-05-09T13:09:03.937Z,19.48
2024-05-09T13:11:54.061Z,20.40
2024-05-09T13:14:43.703Z,20.17
2024-05-09T13:17:33.059Z,20.37
2024-05-09T13:20:29.422Z,19.62
2024-05-09T13:23:22.464Z,19.95
2024-05-09T13:26:12.262Z,20.63
2024-05-09T13:29:01.821Z,20.51
2024-05-09T13:31:51.585Z,19.51
2024-05-09T13:34:41.108Z,19.32
2024-05-09T13:37:33.042Z,19.13
2024-05-09T13:40:31.735Z,19.04
2024-05-09T13:43:25.559Z,19.65
2024-05-09T13:46:15.309Z,19.79
2024-05-09T13:49:05.282Z,19.18
2024-05-09T13:51:55.783Z,19.41
2024-05-09T13:54:45.099Z,19.67
2024-05-09T13:57:34.705Z,18.84
2024-05-09T14:03:17.131Z,19.15
2024-05-09T14:06:10.538Z,19.19
2024-05-09T14:09:01.704Z,19.50
2024-05-09T14:11:50.860Z,19.40
2024-05-09T14:14:40.506Z,19.79
2024-05-09T14:17:30.542Z,20.28
2024-05-09T14:20:29.923Z,20.89
2024-05-09T14:23:22.650Z,21.02
2024-05-09T14:26:11.931Z,21.33
2024-05-09T14:29:01.698Z,21.46
2024-05-09T14:31:51.287Z,21.62
2024-05-09T14:34:41.172Z,21.37
2024-05-09T14:37:31.242Z,21.25
2024-05-09T14:40:31.099Z,21.13
2024-05-09T14:43:29.197Z,20.99
2024-05-09T14:46:19.426Z,20.75
2024-05-09T14:49:11.607Z,20.68
2024-05-09T14:52:01.606Z,20.80
2024-05-09T14:54:59.964Z,21.25
2024-05-09T14:57:50.447Z,21.58
2024-05-09T15:00:47.743Z,21.28
2024-05-09T15:03:40.904Z,21.43
2024-05-09T15:06:30.882Z,21.41
2024-05-09T15:09:20.196Z,21.80
2024-05-09T15:12:10.285Z,21.62
2024-05-09T15:14:59.865Z,22.12
2024-05-09T15:17:49.517Z,21.63
2024-05-09T15:20:40.384Z,21.46
2024-05-09T15:23:30.323Z,21.54
2024-05-09T15:26:20.320Z,21.24
2024-05-09T15:29:09.693Z,21.39
2024-05-09T15:31:59.451Z,21.42
2024-05-09T15:34:49.050Z,21.92
2024-05-09T15:37:38.402Z,21.99
2024-05-09T15:40:36.127Z,21.94
2024-05-09T15:43:30.063Z,21.87
2024-05-09T15:46:19.638Z,22.09
2024-05-09T15:49:09.491Z,22.32
2024-05-09T15:51:58.714Z,22.82
2024-05-09T15:54:48.359Z,22.25
2024-05-09T15:57:38.417Z,22.23
2024-05-09T16:00:36.525Z,22.00
2024-05-09T16:03:30.395Z,22.98
2024-05-09T16:06:19.961Z,23.48
2024-05-09T16:09:09.747Z,22.96
2024-05-09T16:11:59.277Z,22.74
2024-05-09T16:14:50.639Z,23.15
2024-05-09T16:17:40.860Z,23.02
2024-05-09T16:20:38.760Z,22.87
2024-05-09T16:23:31.340Z,23.18
2024-05-09T16:26:20.705Z,23.31
2024-05-09T16:29:10.396Z,22.94
2024-05-09T16:32:00.329Z,22.64
2024-05-09T16:34:50.736Z,23.16
2024-05-09T16:37:40.448Z,22.94
2024-05-09T16:40:37.580Z,22.72
2024-05-09T16:43:30.073Z,22.40
2024-05-09T16:46:19.443Z,22.42
2024-05-09T16:49:10.789Z,22.70
2024-05-09T16:52:00.061Z,22.87
2024-05-09T16:54:49.585Z,23.84
2024-05-09T16:57:39.394Z,24.50
2024-05-09T17:00:38.512Z,23.73
2024-05-09T17:03:32.401Z,23.62
2024-05-09T17:06:22.414Z,23.40
2024-05-09T17:09:15.488Z,23.21
2024-05-09T17:12:05.656Z,23.26
2024-05-09T17:14:55.339Z,23.58
2024-05-09T17:17:45.322Z,23.67
2024-05-09T17:20:36.871Z,24.02
2024-05-09T17:23:28.267Z,24.12
2024-05-09T17:26:19.214Z,24.40
2024-05-09T17:29:12.293Z,24.73
2024-05-09T17:32:02.000Z,24.79
2024-05-09T17:34:51.232Z,24.87
2024-05-09T17:37:40.853Z,24.86
2024-05-09T17:40:34.758Z,24.98
2024-05-09T17:43:26.613Z,25.02
2024-05-09T17:46:16.032Z,25.25
2024-05-09T17:49:05.320Z,25.41
2024-05-09T17:51:54.924Z,25.62
2024-05-09T17:54:44.099Z,26.06
2024-05-09T17:57:34.002Z,26.61
2024-05-09T18:00:34.291Z,27.04
2024-05-09T18:03:28.973Z,27.17
2024-05-09T18:06:18.922Z,27.57
2024-05-09T18:09:08.404Z,28.12
2024-05-09T18:11:58.031Z,28.87
2024-05-09T18:14:47.450Z,29.55
2024-05-09T18:17:37.417Z,30.01
2024-05-09T18:20:37.885Z,30.07
2024-05-09T18:23:32.868Z,30.25
2024-05-09T18:26:22.574Z,30.73
2024-05-09T18:29:11.727Z,31.38
2024-05-09T18:32:02.122Z,32.26
2024-05-09T18:34:51.445Z,32.70
2024-05-09T18:37:42.430Z,32.66
2024-05-09T18:40:35.667Z,33.18
2024-05-09T18:43:35.195Z,33.61
2024-05-09T18:46:32.309Z,34.08
2024-05-09T18:49:22.983Z,34.67
2024-05-09T18:52:12.532Z,35.24
2024-05-09T18:55:02.095Z,35.77
2024-05-09T18:57:51.428Z,36.12
2024-05-09T19:00:44.019Z,36.95
2024-05-09T19:03:35.684Z,37.70
2024-05-09T19:06:25.359Z,38.09
2024-05-09T19:09:14.932Z,38.35
2024-05-09T19:12:06.400Z,38.99
2024-05-09T19:14:55.832Z,39.54
2024-05-09T19:17:45.644Z,40.31
2024-05-09T19:20:36.450Z,40.62
2024-05-09T19:23:26.782Z,40.74
2024-05-09T19:26:16.088Z,40.82
2024-05-09T19:29:05.558Z,40.94
2024-05-09T19:31:55.245Z,40.89
2024-05-09T19:34:45.004Z,40.55
2024-05-09T19:37:34.687Z,40.42
2024-05-09T19:40:30.438Z,41.13
2024-05-09T19:43:22.858Z,41.72
2024-05-09T19:46:12.861Z,42.42
2024-05-09T19:49:03.283Z,42.90
2024-05-09T19:51:53.229Z,43.09
2024-05-09T19:54:43.035Z,43.20
2024-05-09T19:57:32.418Z,43.37
2024-05-09T20:00:29.143Z,43.70
2024-05-09T20:03:24.582Z,43.88
2024-05-09T20:06:13.985Z,44.12
2024-05-09T20:09:03.664Z,44.35
2024-05-09T20:11:53.492Z,44.58
2024-05-09T20:14:42.816Z,44.66
2024-05-09T20:17:32.488Z,44.75
2024-05-09T20:20:34.957Z,45.32
2024-05-09T20:23:28.234Z,45.70
2024-05-09T20:26:17.914Z,45.96
2024-05-09T20:29:07.587Z,46.27
2024-05-09T20:31:57.314Z,46.35
2024-05-09T20:34:50.689Z,46.70
2024-05-09T20:37:40.002Z,47.10
2024-05-09T20:40:33.997Z,47.31
2024-05-09T20:43:27.013Z,47.51
2024-05-09T20:46:16.139Z,47.85
2024-05-09T20:49:05.805Z,48.30
2024-05-09T20:51:55.799Z,48.56
2024-05-09T20:54:45.297Z,48.55
2024-05-09T20:57:35.158Z,48.60
2024-05-09T21:00:33.708Z,48.75
2024-05-09T21:03:28.907Z,48.90
2024-05-09T21:06:18.179Z,48.81
2024-05-09T21:09:08.380Z,48.87
2024-05-09T21:11:58.279Z,48.96
2024-05-09T21:14:48.024Z,49.00
2024-05-09T21:17:37.867Z,49.23
2024-05-09T21:20:31.907Z,49.48
2024-05-09T21:23:22.592Z,49.77
2024-05-09T21:26:14.357Z,50.08
2024-05-09T21:29:03.495Z,50.57
2024-05-09T21:31:53.378Z,50.95
2024-05-09T21:34:43.134Z,51.27
2024-05-09T21:37:32.619Z,51.47
2024-05-09T21:40:30.701Z,51.48
2024-05-09T21:43:26.909Z,51.70
2024-05-09T21:46:17.186Z,51.85
2024-05-09T21:49:06.556Z,51.76
2024-05-09T21:51:56.112Z,51.87
2024-05-09T21:54:45.624Z,52.02
2024-05-09T21:57:35.007Z,52.30
2024-05-09T22:00:32.887Z,52.36
2024-05-09T22:03:27.313Z,52.45
2024-05-09T22:06:16.959Z,52.60
2024-05-09T22:09:06.615Z,52.66
2024-05-09T22:11:57.711Z,52.56
2024-05-09T22:14:48.015Z,52.87
2024-05-09T22:17:40.285Z,53.10
2024-05-09T22:20:36.689Z,53.16
2024-05-09T22:23:28.524Z,53.68
2024-05-09T22:26:18.414Z,53.77
2024-05-09T22:29:08.091Z,53.76
2024-05-09T22:31:57.667Z,53.71
2024-05-09T22:34:47.577Z,53.99
2024-05-09T22:37:37.213Z,53.88
2024-05-09T22:40:38.367Z,54.03
2024-05-09T22:43:36.136Z,54.43
2024-05-09T22:46:26.052Z,54.91
2024-05-09T22:49:16.184Z,54.80
2024-05-09T22:52:06.098Z,54.87
2024-05-09T22:54:55.526Z,54.96
2024-05-09T22:57:44.765Z,54.87
2024-05-09T23:00:35.172Z,54.88
2024-05-09T23:03:25.832Z,55.32
2024-05-09T23:06:15.704Z,55.46
2024-05-09T23:09:07.479Z,55.60
2024-05-09T23:11:57.862Z,55.48
2024-05-09T23:14:47.301Z,55.78
2024-05-09T23:17:37.572Z,56.04
2024-05-09T23:20:35.879Z,56.37
2024-05-09T23:23:29.545Z,56.53
2024-05-09T23:26:18.916Z,56.63
2024-05-09T23:29:08.589Z,56.80
2024-05-09T23:31:57.973Z,56.95
2024-05-09T23:34:47.795Z,56.70
2024-05-09T23:37:37.222Z,56.44
2024-05-09T23:40:37.415Z,56.17
2024-05-09T23:43:29.898Z,56.40
2024-05-09T23:46:19.582Z,56.14
2024-05-09T23:49:11.380Z,56.40
2024-05-09T23:52:00.500Z,56.60
2024-05-09T23:54:50.711Z,56.65
2024-05-09T23:57:41.027Z,56.84
